createdAt,value
2022-12-18T00:03:26.394Z,127.47
2022-12-18T00:08:28.327Z,138.10
2022-12-18T00:13:30.137Z,143.25
2022-12-18T00:18:32.155Z,135.35
2022-12-18T00:23:36.269Z,145.32
2022-12-18T00:28:40.141Z,128.20
2022-12-18T00:33:42.493Z,145.30
2022-12-18T00:38:46.052Z,124.38
2022-12-18T00:43:47.997Z,115.13
2022-12-18T00:48:49.843Z,132.73
2022-12-18T00:53:51.685Z,119.43
2022-12-18T00:58:53.531Z,124.13
2022-12-18T01:03:55.362Z,122.63
2022-12-18T01:08:57.925Z,110.57
2022-12-18T01:13:59.865Z,107.30
2022-12-18T01:19:01.698Z,130.25
2022-12-18T01:24:03.612Z,141.95
2022-12-18T01:29:05.733Z,139.53
2022-12-18T01:34:07.872Z,132.63
2022-12-18T01:39:15.226Z,112.60
2022-12-18T01:44:36.149Z,128.18
2022-12-18T01:49:37.954Z,138.95
2022-12-18T01:54:40.042Z,141.68
2022-12-18T01:59:43.991Z,124.93
2022-12-18T02:04:49.610Z,105.78
2022-12-18T02:10:00.369Z,108.40
2022-12-18T02:15:21.210Z,86.40
2022-12-18T02:20:23.080Z,90.03
2022-12-18T02:25:26.213Z,81.75
2022-12-18T02:30:30.395Z,73.63
2022-12-18T02:35:33.663Z,80.75
2022-12-18T02:40:37.918Z,79.78
2022-12-18T02:51:04.504Z,85.78
2022-12-18T02:56:15.129Z,70.43
2022-12-18T03:01:34.866Z,74.80
2022-12-18T03:06:43.197Z,75.65
2022-12-18T03:11:47.598Z,78.13
2022-12-18T03:16:50.960Z,75.47
2022-12-18T03:21:55.266Z,68.10
2022-12-18T03:27:01.606Z,80.97
2022-12-18T03:32:06.870Z,67.95
2022-12-18T03:37:08.899Z,68.22
2022-12-18T03:42:25.972Z,64.82
2022-12-18T03:47:37.022Z,64.13
2022-12-18T03:53:01.568Z,63.28
2022-12-18T03:58:05.414Z,51.87
2022-12-18T04:03:22.601Z,65.93
2022-12-18T04:08:27.669Z,53.65
2022-12-18T04:13:39.680Z,62.78
2022-12-18T04:18:46.797Z,47.88
2022-12-18T04:23:50.582Z,56.90
2022-12-18T04:28:55.832Z,57.70
2022-12-18T04:33:57.694Z,45.13
2022-12-18T04:39:00.521Z,48.67
2022-12-18T04:44:02.562Z,65.22
2022-12-18T04:49:04.365Z,49.43
2022-12-18T04:54:06.243Z,61.50
2022-12-18T04:59:08.165Z,50.63
2022-12-18T05:04:10.381Z,41.93
2022-12-18T05:09:12.613Z,41.95
2022-12-18T05:14:14.503Z,48.20
2022-12-18T05:19:16.446Z,52.25
2022-12-18T05:24:19.514Z,56.42
2022-12-18T05:29:21.498Z,46.93
2022-12-18T05:34:23.346Z,53.30
2022-12-18T05:39:25.186Z,50.00
2022-12-18T05:44:27.094Z,48.10
2022-12-18T05:49:28.937Z,49.53
2022-12-18T05:54:31.046Z,47.30
2022-12-18T05:59:33.052Z,49.08
2022-12-18T06:04:34.932Z,34.38
2022-12-18T06:09:36.783Z,37.67
2022-12-18T06:14:38.624Z,44.63
2022-12-18T06:19:40.473Z,44.30
2022-12-18T06:24:42.321Z,40.23
2022-12-18T06:29:44.159Z,44.57
2022-12-18T06:34:46.016Z,43.70
2022-12-18T06:39:47.833Z,42.53
2022-12-18T06:44:49.663Z,36.07
2022-12-18T06:49:51.531Z,38.90
2022-12-18T06:54:53.315Z,41.87
2022-12-18T06:59:55.123Z,37.07
2022-12-18T07:04:56.925Z,41.60
2022-12-18T07:09:58.738Z,32.00
2022-12-18T07:15:00.644Z,33.93
2022-12-18T07:20:02.579Z,36.92
2022-12-18T07:25:04.594Z,34.83
2022-12-18T07:30:06.733Z,28.10
2022-12-18T07:35:08.578Z,36.40
2022-12-18T07:40:10.767Z,34.67
2022-12-18T07:45:12.606Z,32.85
2022-12-18T07:50:14.529Z,31.40
2022-12-18T07:55:16.383Z,30.30
2022-12-18T08:00:18.298Z,27.47
2022-12-18T08:05:20.150Z,29.20
2022-12-18T08:10:22.330Z,24.17
2022-12-18T08:15:24.186Z,24.13
2022-12-18T08:20:25.977Z,25.57
2022-12-18T08:25:27.803Z,24.10
2022-12-18T08:30:29.666Z,21.03
2022-12-18T08:35:36.366Z,21.23
2022-12-18T08:40:39.806Z,24.52
2022-12-18T08:45:41.705Z,24.10
2022-12-18T08:50:43.522Z,20.00
2022-12-18T08:55:50.064Z,20.90
2022-12-18T09:00:52.260Z,22.38
2022-12-18T09:05:54.097Z,20.27
2022-12-18T09:10:56.422Z,21.83
2022-12-18T09:15:58.261Z,22.90
2022-12-18T09:21:00.078Z,17.67
2022-12-18T09:26:01.902Z,14.10
2022-12-18T09:31:08.639Z,22.10
2022-12-18T09:36:11.683Z,16.85
2022-12-18T09:41:32.041Z,17.27
2022-12-18T09:46:36.319Z,12.57
2022-12-18T09:51:40.483Z,14.50
2022-12-18T09:56:43.539Z,14.63
2022-12-18T10:07:07.271Z,15.70
2022-12-18T10:12:18.006Z,11.60
2022-12-18T10:17:35.144Z,9.68
2022-12-18T10:22:43.143Z,12.75
2022-12-18T10:27:45.103Z,12.10
2022-12-18T10:32:46.899Z,13.93
2022-12-18T10:38:01.835Z,10.50
2022-12-18T10:43:12.155Z,12.25
2022-12-18T10:48:21.843Z,11.65
2022-12-18T10:53:25.362Z,9.98
2022-12-18T10:58:31.622Z,11.30
2022-12-18T11:03:45.854Z,11.68
2022-12-18T11:09:12.204Z,13.32
2022-12-18T11:14:19.171Z,11.23
2022-12-18T11:19:35.371Z,11.05
2022-12-18T11:24:37.338Z,8.02
2022-12-18T11:29:44.921Z,11.73
2022-12-18T11:34:54.670Z,9.95
2022-12-18T11:40:03.868Z,10.15
2022-12-18T11:45:19.585Z,12.30
2022-12-18T11:50:40.079Z,11.77
2022-12-18T11:55:59.924Z,10.52
2022-12-18T12:01:04.494Z,11.70
2022-12-18T12:06:13.187Z,10.65
2022-12-18T12:11:14.974Z,13.77
2022-12-18T12:16:18.765Z,11.70
2022-12-18T12:21:20.567Z,11.57
2022-12-18T12:26:34.248Z,12.57
2022-12-18T12:36:37.780Z,11.48
2022-12-18T12:41:40.853Z,10.23
2022-12-18T12:46:43.299Z,11.75
2022-12-18T12:51:47.538Z,15.30
2022-12-18T12:56:52.934Z,12.13
2022-12-18T13:02:04.570Z,13.73
2022-12-18T13:07:15.506Z,12.10
2022-12-18T13:12:17.335Z,12.57
2022-12-18T13:17:22.206Z,11.60
2022-12-18T13:22:30.877Z,16.52
2022-12-18T13:27:45.056Z,13.10
2022-12-18T13:32:46.873Z,17.20
2022-12-18T13:37:53.066Z,13.80
2022-12-18T13:42:55.658Z,14.05
2022-12-18T13:47:57.552Z,13.77
2022-12-18T13:53:00.276Z,13.98
2022-12-18T13:58:05.960Z,13.23
2022-12-18T14:03:21.785Z,12.85
2022-12-18T14:08:24.567Z,12.73
2022-12-18T14:13:31.393Z,15.70
2022-12-18T14:18:36.223Z,13.98
2022-12-18T14:23:40.319Z,14.38
2022-12-18T14:28:45.480Z,16.83
2022-12-18T14:33:47.535Z,14.20
2022-12-18T14:38:53.464Z,17.00
2022-12-18T14:43:55.542Z,15.77
2022-12-18T14:48:57.786Z,13.07
2022-12-18T14:54:03.629Z,14.67
2022-12-18T14:59:06.722Z,13.93
2022-12-18T15:09:24.391Z,13.90
2022-12-18T15:14:38.682Z,15.57
2022-12-18T15:19:41.539Z,12.30
2022-12-18T15:24:43.392Z,16.35
2022-12-18T15:29:59.969Z,12.88
2022-12-18T15:35:20.315Z,13.70
2022-12-18T15:40:23.378Z,12.18
2022-12-18T15:50:26.820Z,14.18
2022-12-18T16:00:32.474Z,12.10
2022-12-18T16:05:34.322Z,14.27
2022-12-18T16:10:36.287Z,11.30
2022-12-18T16:15:38.200Z,14.10
2022-12-18T16:20:40.250Z,11.55
2022-12-18T16:25:42.054Z,12.05
2022-12-18T16:30:43.916Z,11.38
2022-12-18T16:35:51.843Z,12.90
2022-12-18T16:40:53.626Z,12.45
2022-12-18T16:45:55.578Z,9.63
2022-12-18T16:51:01.250Z,12.60
2022-12-18T16:56:03.226Z,10.80
2022-12-18T17:01:10.468Z,9.85
2022-12-18T17:06:12.297Z,10.65
2022-12-18T17:11:14.372Z,10.23
2022-12-18T17:16:16.263Z,12.27
2022-12-18T17:21:18.119Z,10.95
2022-12-18T17:26:19.910Z,10.07
2022-12-18T17:31:22.352Z,9.10
2022-12-18T17:36:24.514Z,10.13
2022-12-18T17:41:27.154Z,8.32
2022-12-18T17:46:30.098Z,9.68
2022-12-18T17:51:31.994Z,12.77
2022-12-18T17:56:33.822Z,11.95
2022-12-18T18:01:42.437Z,8.60
2022-12-18T18:06:46.120Z,10.48
2022-12-18T18:11:47.946Z,9.65
2022-12-18T18:16:51.660Z,11.25
2022-12-18T18:21:53.494Z,9.30
2022-12-18T18:26:56.357Z,7.88
2022-12-18T18:31:58.593Z,11.43
2022-12-18T18:37:01.074Z,9.30
2022-12-18T18:42:02.931Z,10.63
2022-12-18T18:47:05.638Z,7.80
2022-12-18T18:52:11.506Z,9.40
2022-12-18T18:57:21.341Z,11.07
2022-12-18T19:02:24.703Z,9.65
2022-12-18T19:07:30.755Z,10.13
2022-12-18T19:12:33.999Z,12.35
2022-12-18T19:17:35.822Z,8.52
2022-12-18T19:22:38.400Z,8.15
2022-12-18T19:27:40.273Z,10.13
2022-12-18T19:32:42.108Z,11.52
2022-12-18T19:37:43.922Z,10.40
2022-12-18T19:42:45.944Z,11.32
2022-12-18T19:47:49.632Z,10.10
2022-12-18T19:52:51.651Z,10.68
2022-12-18T19:57:53.587Z,8.68
2022-12-18T20:03:01.461Z,10.23
2022-12-18T20:08:07.543Z,10.90
2022-12-18T20:13:09.425Z,11.70
2022-12-18T20:18:11.370Z,13.57
2022-12-18T20:23:13.796Z,12.32
2022-12-18T20:28:15.632Z,11.88
2022-12-18T20:33:17.442Z,14.27
2022-12-18T20:38:19.378Z,12.32
2022-12-18T20:43:22.375Z,12.73
2022-12-18T20:48:26.748Z,17.15
2022-12-18T20:53:29.038Z,13.98
2022-12-18T20:58:31.051Z,15.13
2022-12-18T21:03:32.948Z,18.50
2022-12-18T21:08:35.019Z,17.05
2022-12-18T21:13:36.845Z,17.75
2022-12-18T21:18:38.879Z,15.88
2022-12-18T21:23:40.827Z,17.95
2022-12-18T21:28:42.623Z,15.18
2022-12-18T21:33:44.560Z,22.08
2022-12-18T21:43:49.656Z,18.23
2022-12-18T21:48:51.466Z,18.30
2022-12-18T21:53:53.309Z,21.33
2022-12-18T21:58:57.060Z,19.10
2022-12-18T22:03:59.348Z,21.38
2022-12-18T22:09:01.210Z,19.95
2022-12-18T22:14:03.125Z,21.10
2022-12-18T22:19:05.050Z,19.00
2022-12-18T22:24:08.282Z,21.00
2022-12-18T22:34:11.774Z,24.00
2022-12-18T22:39:20.923Z,22.42
2022-12-18T22:44:23.124Z,24.02
2022-12-18T22:49:25.395Z,24.50
2022-12-18T22:54:27.283Z,27.40
2022-12-18T22:59:29.065Z,25.58
2022-12-18T23:04:36.203Z,25.65
2022-12-18T23:09:38.533Z,30.98
2022-12-18T23:14:40.374Z,28.30
2022-12-18T23:19:48.547Z,32.72
2022-12-18T23:24:50.981Z,24.67
2022-12-18T23:29:52.775Z,27.73
2022-12-18T23:34:56.670Z,35.55
2022-12-18T23:39:58.453Z,31.90
2022-12-18T23:45:00.237Z,33.20
2022-12-18T23:50:03.216Z,31.00
2022-12-18T23:55:05.292Z,33.00
